Forside
METAR-TAF:

METAR-TAF

Lufthavne :

Nakashibetsu, Japan

Breddekreds: 43-34N, længdekreds: 144-58E, højde: 66 m

Aktuelle vejr

Denne rapport blev lavet for 1 time og 14 minutter siden, kl. 04:00 UTC
Vind 3 kt fra øst, varierende mellem nordøst og østsydøst
Temperatur -1°C
Fugtighed 34%
Tryk 1019 hPa
Sigt 10 km eller mere
Nogle få skyer i en højde af 4000 ft

METAR: RJCN 250400Z 08003KT 040V120 9999 FEW040 M01/M15 Q1019

Tid: 14:14 (05:14 UTC)


TAF: fraværende

Vejrobservationer og prognoser fra mere end 4000 lufthavne (METAR og TAF).

De gule og røde prikker repræsenterer de meteorologiske stationer.

Flyt musen over at se navnet på stationen.

Så klik over at se vejr observationer og prognoser.

At skifte det kort: Klik på de grønne knapper med et sort kors for at zoome ind; på den grønne knap med en bindestreg for at zoome ud; eller på de grønne pile for tilstødende kort.


METAR-TAF: